sensor_id;sensor_type;location;lat;lon;timestamp;pressure;altitude;pressure_sealevel;temperature;humidity
4617;BME280;2321;42.704;23.384;2022-09-30T00:00:36;95106.22;;;17.00;100.00
4617;BME280;2321;42.704;23.384;2022-09-30T00:03:03;95110.53;;;17.01;100.00
4617;BME280;2321;42.704;23.384;2022-09-30T00:05:30;95099.19;;;16.99;100.00
4617;BME280;2321;42.704;23.384;2022-09-30T00:07:57;95115.38;;;16.87;100.00
4617;BME280;2321;42.704;23.384;2022-09-30T00:10:25;95112.81;;;16.92;100.00
4617;BME280;2321;42.704;23.384;2022-09-30T00:12:52;95116.66;;;16.84;100.00
4617;BME280;2321;42.704;23.384;2022-09-30T00:15:19;95112.81;;;16.92;100.00
4617;BME280;2321;42.704;23.384;2022-09-30T00:17:48;95117.75;;;16.83;100.00
4617;BME280;2321;42.704;23.384;2022-09-30T00:20:15;95110.47;;;16.84;100.00
4617;BME280;2321;42.704;23.384;2022-09-30T00:22:42;95105.00;;;16.79;100.00
4617;BME280;2321;42.704;23.384;2022-09-30T00:25:09;95110.66;;;16.65;100.00
4617;BME280;2321;42.704;23.384;2022-09-30T00:27:37;95125.63;;;16.61;100.00
4617;BME280;2321;42.704;23.384;2022-09-30T00:30:04;95133.69;;;16.61;100.00
4617;BME280;2321;42.704;23.384;2022-09-30T00:32:31;95121.78;;;16.57;100.00
4617;BME280;2321;42.704;23.384;2022-09-30T00:35:00;95125.84;;;16.59;100.00
4617;BME280;2321;42.704;23.384;2022-09-30T00:37:27;95117.59;;;16.49;100.00
4617;BME280;2321;42.704;23.384;2022-09-30T00:39:54;95122.84;;;16.55;100.00
4617;BME280;2321;42.704;23.384;2022-09-30T00:42:21;95129.59;;;16.58;100.00
4617;BME280;2321;42.704;23.384;2022-09-30T00:44:53;95121.22;;;16.42;100.00
4617;BME280;2321;42.704;23.384;2022-09-30T00:47:45;95105.22;;;16.36;100.00
4617;BME280;2321;42.704;23.384;2022-09-30T00:50:24;95116.53;;;16.38;100.00
4617;BME280;2321;42.704;23.384;2022-09-30T00:52:57;95114.47;;;16.40;100.00
4617;BME280;2321;42.704;23.384;2022-09-30T00:55:33;95110.22;;;16.44;100.00
4617;BME280;2321;42.704;23.384;2022-09-30T00:58:03;95113.38;;;16.41;100.00
4617;BME280;2321;42.704;23.384;2022-09-30T01:00:32;95114.22;;;16.41;100.00
4617;BME280;2321;42.704;23.384;2022-09-30T01:03:01;95119.84;;;16.40;100.00
4617;BME280;2321;42.704;23.384;2022-09-30T01:05:32;95113.97;;;16.43;100.00
4617;BME280;2321;42.704;23.384;2022-09-30T01:08:02;95119.69;;;16.34;100.00
4617;BME280;2321;42.704;23.384;2022-09-30T01:10:30;95107.56;;;16.20;100.00
4617;BME280;2321;42.704;23.384;2022-09-30T01:12:58;95109.44;;;16.19;100.00
4617;BME280;2321;42.704;23.384;2022-09-30T01:15:34;95106.44;;;16.16;100.00
4617;BME280;2321;42.704;23.384;2022-09-30T01:18:10;95086.34;;;16.18;100.00
4617;BME280;2321;42.704;23.384;2022-09-30T01:20:56;95101.38;;;16.19;100.00
4617;BME280;2321;42.704;23.384;2022-09-30T01:26:43;95116.91;;;16.05;100.00
4617;BME280;2321;42.704;23.384;2022-09-30T01:32:20;95109.22;;;15.97;100.00
4617;BME280;2321;42.704;23.384;2022-09-30T01:35:00;95115.63;;;15.96;100.00
4617;BME280;2321;42.704;23.384;2022-09-30T01:37:38;95122.03;;;15.95;100.00
4617;BME280;2321;42.704;23.384;2022-09-30T01:40:16;95114.13;;;16.00;100.00
4617;BME280;2321;42.704;23.384;2022-09-30T01:42:53;95120.41;;;16.06;100.00
4617;BME280;2321;42.704;23.384;2022-09-30T01:45:31;95121.09;;;16.01;100.00
4617;BME280;2321;42.704;23.384;2022-09-30T01:48:06;95113.88;;;15.89;100.00
4617;BME280;2321;42.704;23.384;2022-09-30T01:50:42;95110.25;;;15.96;100.00
4617;BME280;2321;42.704;23.384;2022-09-30T01:53:18;95122.88;;;16.07;100.00
4617;BME280;2321;42.704;23.384;2022-09-30T01:55:51;95120.34;;;16.13;100.00
4617;BME280;2321;42.704;23.384;2022-09-30T01:58:23;95116.00;;;16.11;100.00
4617;BME280;2321;42.704;23.384;2022-09-30T02:00:55;95121.25;;;16.18;100.00
4617;BME280;2321;42.704;23.384;2022-09-30T02:03:29;95113.56;;;16.22;100.00
4617;BME280;2321;42.704;23.384;2022-09-30T02:06:01;95117.03;;;16.22;100.00
4617;BME280;2321;42.704;23.384;2022-09-30T02:08:33;95117.47;;;16.31;100.00
4617;BME280;2321;42.704;23.384;2022-09-30T02:11:06;95114.22;;;16.29;100.00
4617;BME280;2321;42.704;23.384;2022-09-30T02:13:39;95125.06;;;16.34;100.00
4617;BME280;2321;42.704;23.384;2022-09-30T02:16:13;95118.44;;;16.37;100.00
4617;BME280;2321;42.704;23.384;2022-09-30T02:18:47;95122.06;;;16.31;100.00
4617;BME280;2321;42.704;23.384;2022-09-30T02:21:19;95123.56;;;16.27;100.00
4617;BME280;2321;42.704;23.384;2022-09-30T02:23:52;95123.69;;;16.20;100.00
4617;BME280;2321;42.704;23.384;2022-09-30T02:26:24;95128.03;;;16.21;100.00
4617;BME280;2321;42.704;23.384;2022-09-30T02:28:55;95129.06;;;16.20;100.00
4617;BME280;2321;42.704;23.384;2022-09-30T02:31:26;95131.53;;;16.33;100.00
4617;BME280;2321;42.704;23.384;2022-09-30T02:33:58;95139.94;;;16.37;100.00
4617;BME280;2321;42.704;23.384;2022-09-30T02:36:30;95128.94;;;16.39;100.00
4617;BME280;2321;42.704;23.384;2022-09-30T02:39:04;95123.66;;;16.44;100.00
4617;BME280;2321;42.704;23.384;2022-09-30T02:41:36;95126.94;;;16.46;100.00
4617;BME280;2321;42.704;23.384;2022-09-30T02:44:05;95122.97;;;16.49;100.00
4617;BME280;2321;42.704;23.384;2022-09-30T02:46:40;95124.50;;;16.32;100.00
4617;BME280;2321;42.704;23.384;2022-09-30T02:49:16;95129.19;;;16.13;100.00
4617;BME280;2321;42.704;23.384;2022-09-30T02:51:55;95129.75;;;16.03;100.00
4617;BME280;2321;42.704;23.384;2022-09-30T02:54:31;95126.25;;;15.90;100.00
4617;BME280;2321;42.704;23.384;2022-09-30T02:57:08;95138.28;;;16.00;100.00
4617;BME280;2321;42.704;23.384;2022-09-30T02:59:40;95138.53;;;16.10;100.00
4617;BME280;2321;42.704;23.384;2022-09-30T03:02:07;95140.63;;;16.08;100.00
4617;BME280;2321;42.704;23.384;2022-09-30T03:04:37;95133.47;;;16.02;100.00
4617;BME280;2321;42.704;23.384;2022-09-30T03:07:07;95145.63;;;15.93;100.00
4617;BME280;2321;42.704;23.384;2022-09-30T03:09:35;95148.41;;;15.98;100.00
4617;BME280;2321;42.704;23.384;2022-09-30T03:12:10;95142.09;;;15.92;100.00
4617;BME280;2321;42.704;23.384;2022-09-30T03:14:50;95143.75;;;15.93;100.00
4617;BME280;2321;42.704;23.384;2022-09-30T03:17:34;95142.56;;;16.01;100.00
4617;BME280;2321;42.704;23.384;2022-09-30T03:20:29;95147.38;;;15.99;100.00
4617;BME280;2321;42.704;23.384;2022-09-30T03:23:23;95150.88;;;15.99;100.00
4617;BME280;2321;42.704;23.384;2022-09-30T03:26:02;95147.84;;;15.96;100.00
4617;BME280;2321;42.704;23.384;2022-09-30T03:28:37;95149.47;;;15.85;100.00
4617;BME280;2321;42.704;23.384;2022-09-30T03:31:14;95141.63;;;15.83;100.00
4617;BME280;2321;42.704;23.384;2022-09-30T03:33:48;95144.44;;;15.76;100.00
4617;BME280;2321;42.704;23.384;2022-09-30T03:36:25;95140.69;;;15.77;100.00
4617;BME280;2321;42.704;23.384;2022-09-30T03:39:00;95148.19;;;15.87;100.00
4617;BME280;2321;42.704;23.384;2022-09-30T03:41:33;95143.94;;;15.67;100.00
4617;BME280;2321;42.704;23.384;2022-09-30T03:44:04;95146.91;;;15.78;100.00
4617;BME280;2321;42.704;23.384;2022-09-30T03:46:37;95146.66;;;15.79;100.00
4617;BME280;2321;42.704;23.384;2022-09-30T03:49:09;95151.69;;;15.76;100.00
4617;BME280;2321;42.704;23.384;2022-09-30T03:51:40;95165.59;;;15.85;100.00
4617;BME280;2321;42.704;23.384;2022-09-30T03:54:08;95179.69;;;15.92;100.00
4617;BME280;2321;42.704;23.384;2022-09-30T03:56:36;95174.09;;;15.94;100.00
4617;BME280;2321;42.704;23.384;2022-09-30T03:59:09;95175.97;;;15.93;100.00
4617;BME280;2321;42.704;23.384;2022-09-30T04:01:37;95169.78;;;15.93;100.00
4617;BME280;2321;42.704;23.384;2022-09-30T04:04:05;95174.00;;;15.88;100.00
4617;BME280;2321;42.704;23.384;2022-09-30T04:06:32;95181.56;;;15.92;100.00
4617;BME280;2321;42.704;23.384;2022-09-30T04:09:01;95177.25;;;15.90;100.00
4617;BME280;2321;42.704;23.384;2022-09-30T04:11:27;95173.75;;;15.90;100.00
4617;BME280;2321;42.704;23.384;2022-09-30T04:13:54;95173.84;;;15.83;100.00
4617;BME280;2321;42.704;23.384;2022-09-30T04:16:21;95168.81;;;15.75;100.00
4617;BME280;2321;42.704;23.384;2022-09-30T04:18:49;95169.19;;;15.78;100.00
4617;BME280;2321;42.704;23.384;2022-09-30T04:21:16;95171.97;;;15.72;100.00
4617;BME280;2321;42.704;23.384;2022-09-30T04:23:43;95169.88;;;15.74;100.00
4617;BME280;2321;42.704;23.384;2022-09-30T04:26:13;95165.78;;;15.71;100.00
4617;BME280;2321;42.704;23.384;2022-09-30T04:28:40;95164.13;;;15.70;100.00
4617;BME280;2321;42.704;23.384;2022-09-30T04:31:09;95157.38;;;15.67;100.00
4617;BME280;2321;42.704;23.384;2022-09-30T04:33:37;95166.16;;;15.75;100.00
4617;BME280;2321;42.704;23.384;2022-09-30T04:36:05;95185.41;;;15.84;100.00
4617;BME280;2321;42.704;23.384;2022-09-30T04:38:32;95185.88;;;15.81;100.00
4617;BME280;2321;42.704;23.384;2022-09-30T04:41:01;95191.59;;;15.84;100.00
4617;BME280;2321;42.704;23.384;2022-09-30T04:43:31;95180.88;;;15.84;100.00
4617;BME280;2321;42.704;23.384;2022-09-30T04:45:59;95180.97;;;15.89;100.00
4617;BME280;2321;42.704;23.384;2022-09-30T04:48:27;95185.19;;;15.85;100.00
4617;BME280;2321;42.704;23.384;2022-09-30T04:50:57;95204.56;;;15.87;100.00
4617;BME280;2321;42.704;23.384;2022-09-30T04:53:25;95199.88;;;15.95;100.00
4617;BME280;2321;42.704;23.384;2022-09-30T04:55:57;95217.41;;;15.85;100.00
4617;BME280;2321;42.704;23.384;2022-09-30T04:58:25;95210.28;;;15.79;100.00
4617;BME280;2321;42.704;23.384;2022-09-30T05:01:00;95222.16;;;15.83;100.00
4617;BME280;2321;42.704;23.384;2022-09-30T05:03:27;95228.34;;;15.84;100.00
4617;BME280;2321;42.704;23.384;2022-09-30T05:05:54;95222.16;;;15.83;100.00
4617;BME280;2321;42.704;23.384;2022-09-30T05:08:21;95231.53;;;15.93;100.00
4617;BME280;2321;42.704;23.384;2022-09-30T05:10:54;95223.25;;;15.94;100.00
4617;BME280;2321;42.704;23.384;2022-09-30T05:13:23;95214.03;;;16.02;100.00
4617;BME280;2321;42.704;23.384;2022-09-30T05:15:50;95214.50;;;15.99;100.00
4617;BME280;2321;42.704;23.384;2022-09-30T05:18:19;95214.41;;;16.06;100.00
4617;BME280;2321;42.704;23.384;2022-09-30T05:20:49;95223.94;;;16.01;100.00
4617;BME280;2321;42.704;23.384;2022-09-30T05:23:16;95241.63;;;16.09;100.00
4617;BME280;2321;42.704;23.384;2022-09-30T05:25:44;95237.56;;;16.07;100.00
4617;BME280;2321;42.704;23.384;2022-09-30T05:28:11;95231.03;;;15.84;100.00
4617;BME280;2321;42.704;23.384;2022-09-30T05:30:40;95234.91;;;15.88;100.00
4617;BME280;2321;42.704;23.384;2022-09-30T05:33:08;95232.56;;;15.92;100.00
4617;BME280;2321;42.704;23.384;2022-09-30T05:35:38;95230.94;;;15.90;100.00
4617;BME280;2321;42.704;23.384;2022-09-30T05:38:05;95232.47;;;15.98;100.00
4617;BME280;2321;42.704;23.384;2022-09-30T05:40:33;95247.75;;;15.98;100.00
4617;BME280;2321;42.704;23.384;2022-09-30T05:42:59;95259.56;;;15.97;100.00
4617;BME280;2321;42.704;23.384;2022-09-30T05:45:26;95264.09;;;15.96;100.00
4617;BME280;2321;42.704;23.384;2022-09-30T05:47:54;95270.13;;;16.10;100.00
4617;BME280;2321;42.704;23.384;2022-09-30T05:50:22;95283.31;;;16.12;100.00
4617;BME280;2321;42.704;23.384;2022-09-30T05:52:51;95271.28;;;16.15;100.00
4617;BME280;2321;42.704;23.384;2022-09-30T05:55:19;95272.66;;;16.05;100.00
4617;BME280;2321;42.704;23.384;2022-09-30T05:57:47;95273.03;;;16.09;100.00
4617;BME280;2321;42.704;23.384;2022-09-30T06:00:15;95277.38;;;16.10;100.00
4617;BME280;2321;42.704;23.384;2022-09-30T06:02:42;95272.00;;;16.10;100.00
4617;BME280;2321;42.704;23.384;2022-09-30T06:05:10;95275.34;;;16.05;100.00
4617;BME280;2321;42.704;23.384;2022-09-30T06:07:38;95276.66;;;16.15;100.00
4617;BME280;2321;42.704;23.384;2022-09-30T06:10:07;95288.47;;;16.26;100.00
4617;BME280;2321;42.704;23.384;2022-09-30T06:12:36;95290.03;;;16.33;100.00
4617;BME280;2321;42.704;23.384;2022-09-30T06:15:04;95299.38;;;16.31;100.00
4617;BME280;2321;42.704;23.384;2022-09-30T06:17:32;95278.09;;;16.29;100.00
4617;BME280;2321;42.704;23.384;2022-09-30T06:19:59;95285.00;;;16.37;100.00
4617;BME280;2321;42.704;23.384;2022-09-30T06:22:28;95288.03;;;16.41;100.00
4617;BME280;2321;42.704;23.384;2022-09-30T06:24:55;95286.88;;;16.37;100.00
4617;BME280;2321;42.704;23.384;2022-09-30T06:27:24;95292.81;;;16.39;100.00
4617;BME280;2321;42.704;23.384;2022-09-30T06:29:51;95296.44;;;16.44;100.00
4617;BME280;2321;42.704;23.384;2022-09-30T06:32:17;95298.91;;;16.46;100.00
4617;BME280;2321;42.704;23.384;2022-09-30T06:34:45;95309.19;;;16.49;100.00
4617;BME280;2321;42.704;23.384;2022-09-30T06:37:12;95304.75;;;16.55;100.00
4617;BME280;2321;42.704;23.384;2022-09-30T06:39:40;95309.88;;;16.57;100.00
4617;BME280;2321;42.704;23.384;2022-09-30T06:42:07;95309.66;;;16.58;100.00
4617;BME280;2321;42.704;23.384;2022-09-30T06:44:35;95309.88;;;16.57;100.00
4617;BME280;2321;42.704;23.384;2022-09-30T06:47:02;95304.50;;;16.57;100.00
4617;BME280;2321;42.704;23.384;2022-09-30T06:49:29;95310.50;;;16.59;100.00
4617;BME280;2321;42.704;23.384;2022-09-30T06:51:58;95315.50;;;16.67;100.00
4617;BME280;2321;42.704;23.384;2022-09-30T06:54:26;95325.22;;;16.68;100.00
4617;BME280;2321;42.704;23.384;2022-09-30T06:56:53;95333.75;;;16.65;100.00
4617;BME280;2321;42.704;23.384;2022-09-30T06:59:21;95348.81;;;16.66;100.00
4617;BME280;2321;42.704;23.384;2022-09-30T07:01:50;95343.06;;;16.62;100.00
4617;BME280;2321;42.704;23.384;2022-09-30T07:04:17;95345.53;;;16.64;100.00
4617;BME280;2321;42.704;23.384;2022-09-30T07:06:44;95358.41;;;16.74;100.00
4617;BME280;2321;42.704;23.384;2022-09-30T07:09:11;95347.31;;;16.70;100.00
4617;BME280;2321;42.704;23.384;2022-09-30T07:11:38;95358.97;;;16.64;100.00
4617;BME280;2321;42.704;23.384;2022-09-30T07:14:06;95371.38;;;16.65;100.00
4617;BME280;2321;42.704;23.384;2022-09-30T07:16:33;95367.63;;;16.54;100.00
4617;BME280;2321;42.704;23.384;2022-09-30T07:19:03;95346.00;;;16.49;100.00
4617;BME280;2321;42.704;23.384;2022-09-30T07:21:30;95354.53;;;16.58;100.00
4617;BME280;2321;42.704;23.384;2022-09-30T07:23:57;95357.69;;;16.66;100.00
4617;BME280;2321;42.704;23.384;2022-09-30T07:26:25;95362.25;;;16.66;100.00
4617;BME280;2321;42.704;23.384;2022-09-30T07:28:52;95367.28;;;16.74;100.00
4617;BME280;2321;42.704;23.384;2022-09-30T07:31:21;95357.97;;;16.77;100.00
4617;BME280;2321;42.704;23.384;2022-09-30T07:33:49;95362.03;;;16.80;100.00
4617;BME280;2321;42.704;23.384;2022-09-30T07:36:20;95368.81;;;16.82;100.00
4617;BME280;2321;42.704;23.384;2022-09-30T07:38:51;95373.94;;;16.96;100.00
4617;BME280;2321;42.704;23.384;2022-09-30T07:41:21;95378.19;;;17.04;100.00
4617;BME280;2321;42.704;23.384;2022-09-30T07:43:52;95383.31;;;17.17;100.00
4617;BME280;2321;42.704;23.384;2022-09-30T07:46:22;95372.91;;;17.33;100.00
4617;BME280;2321;42.704;23.384;2022-09-30T07:48:51;95381.94;;;17.51;100.00
4617;BME280;2321;42.704;23.384;2022-09-30T07:51:21;95387.59;;;17.67;100.00
4617;BME280;2321;42.704;23.384;2022-09-30T07:53:50;95381.38;;;17.78;100.00
4617;BME280;2321;42.704;23.384;2022-09-30T07:56:24;95387.69;;;17.84;100.00
4617;BME280;2321;42.704;23.384;2022-09-30T07:58:52;95382.66;;;17.88;100.00
4617;BME280;2321;42.704;23.384;2022-09-30T08:01:20;95383.09;;;17.96;100.00
4617;BME280;2321;42.704;23.384;2022-09-30T08:03:47;95374.22;;;18.13;100.00
4617;BME280;2321;42.704;23.384;2022-09-30T08:06:16;95394.56;;;18.33;100.00
4617;BME280;2321;42.704;23.384;2022-09-30T08:08:45;95395.31;;;18.46;100.00
4617;BME280;2321;42.704;23.384;2022-09-30T08:11:13;95403.41;;;18.63;100.00
4617;BME280;2321;42.704;23.384;2022-09-30T08:13:40;95406.28;;;18.73;100.00
4617;BME280;2321;42.704;23.384;2022-09-30T08:16:07;95406.13;;;18.80;100.00
4617;BME280;2321;42.704;23.384;2022-09-30T08:18:34;95392.88;;;18.79;100.00
4617;BME280;2321;42.704;23.384;2022-09-30T08:21:02;95406.69;;;19.00;100.00
4617;BME280;2321;42.704;23.384;2022-09-30T08:23:31;95410.06;;;19.07;100.00
4617;BME280;2321;42.704;23.384;2022-09-30T08:26:04;95415.34;;;19.19;100.00
4617;BME280;2321;42.704;23.384;2022-09-30T08:28:32;95415.19;;;19.26;100.00
4617;BME280;2321;42.704;23.384;2022-09-30T08:31:04;95418.81;;;19.32;100.00
4617;BME280;2321;42.704;23.384;2022-09-30T08:33:31;95409.56;;;19.27;100.00
4617;BME280;2321;42.704;23.384;2022-09-30T08:36:03;95411.91;;;19.41;100.00
4617;BME280;2321;42.704;23.384;2022-09-30T08:38:30;95420.97;;;19.52;100.00
4617;BME280;2321;42.704;23.384;2022-09-30T08:41:09;95417.00;;;19.60;100.00
4617;BME280;2321;42.704;23.384;2022-09-30T08:43:48;95417.72;;;19.50;100.00
4617;BME280;2321;42.704;23.384;2022-09-30T08:46:25;95409.34;;;19.52;100.00
4617;BME280;2321;42.704;23.384;2022-09-30T08:49:04;95417.88;;;19.66;100.00
4617;BME280;2321;42.704;23.384;2022-09-30T08:51:36;95421.50;;;19.72;100.00
4617;BME280;2321;42.704;23.384;2022-09-30T08:54:10;95436.94;;;19.76;100.00
4617;BME280;2321;42.704;23.384;2022-09-30T08:56:41;95424.97;;;19.89;100.00
4617;BME280;2321;42.704;23.384;2022-09-30T08:59:20;95432.66;;;20.03;100.00
4617;BME280;2321;42.704;23.384;2022-09-30T09:01:58;95436.91;;;20.16;100.00
4617;BME280;2321;42.704;23.384;2022-09-30T09:04:26;95434.63;;;20.30;100.00
4617;BME280;2321;42.704;23.384;2022-09-30T09:06:58;95433.00;;;20.29;100.00
4617;BME280;2321;42.704;23.384;2022-09-30T09:09:39;95438.50;;;20.40;100.00
4617;BME280;2321;42.704;23.384;2022-09-30T09:12:21;95445.94;;;20.55;100.00
4617;BME280;2321;42.704;23.384;2022-09-30T09:15:04;95447.09;;;20.59;100.00
4617;BME280;2321;42.704;23.384;2022-09-30T09:17:42;95446.38;;;20.69;100.00
4617;BME280;2321;42.704;23.384;2022-09-30T09:20:18;95445.91;;;20.77;100.00
4617;BME280;2321;42.704;23.384;2022-09-30T09:22:48;95454.16;;;20.93;100.00
4617;BME280;2321;42.704;23.384;2022-09-30T09:25:19;95451.03;;;21.07;100.00
4617;BME280;2321;42.704;23.384;2022-09-30T09:27:52;95448.41;;;21.12;100.00
4617;BME280;2321;42.704;23.384;2022-09-30T09:30:21;95452.81;;;21.23;100.00
4617;BME280;2321;42.704;23.384;2022-09-30T09:32:51;95451.25;;;21.33;100.00
4617;BME280;2321;42.704;23.384;2022-09-30T09:35:28;95450.81;;;21.47;100.00
4617;BME280;2321;42.704;23.384;2022-09-30T09:38:05;95448.44;;;21.61;100.00
4617;BME280;2321;42.704;23.384;2022-09-30T09:41:02;95450.72;;;21.80;100.00
4617;BME280;2321;42.704;23.384;2022-09-30T09:43:49;95445.34;;;21.90;100.00
4617;BME280;2321;42.704;23.384;2022-09-30T09:46:21;95450.00;;;22.00;100.00
4617;BME280;2321;42.704;23.384;2022-09-30T09:49:24;95455.19;;;22.07;100.00
4617;BME280;2321;42.704;23.384;2022-09-30T09:52:17;95454.44;;;22.27;100.00
4617;BME280;2321;42.704;23.384;2022-09-30T09:54:50;95453.16;;;22.46;100.00
4617;BME280;2321;42.704;23.384;2022-09-30T09:57:22;95447.47;;;22.52;100.00
4617;BME280;2321;42.704;23.384;2022-09-30T09:59:58;95451.53;;;22.60;100.00
4617;BME280;2321;42.704;23.384;2022-09-30T10:02:57;95446.16;;;22.76;100.00
4617;BME280;2321;42.704;23.384;2022-09-30T10:05:25;95451.34;;;22.88;100.00
4617;BME280;2321;42.704;23.384;2022-09-30T10:08:07;95451.34;;;22.99;100.00
4617;BME280;2321;42.704;23.384;2022-09-30T10:10:43;95454.34;;;23.13;100.00
4617;BME280;2321;42.704;23.384;2022-09-30T10:13:16;95451.88;;;23.22;94.78
4617;BME280;2321;42.704;23.384;2022-09-30T10:15:45;95449.72;;;23.34;91.98
4617;BME280;2321;42.704;23.384;2022-09-30T10:18:22;95442.91;;;23.42;88.15
4617;BME280;2321;42.704;23.384;2022-09-30T10:20:52;95444.84;;;23.52;91.84
4617;BME280;2321;42.704;23.384;2022-09-30T10:23:21;95434.72;;;23.68;84.19
4617;BME280;2321;42.704;23.384;2022-09-30T10:26:00;95435.50;;;23.85;83.58
4617;BME280;2321;42.704;23.384;2022-09-30T10:28:30;95439.78;;;24.01;85.54
4617;BME280;2321;42.704;23.384;2022-09-30T10:31:02;95428.09;;;24.06;77.78
4617;BME280;2321;42.704;23.384;2022-09-30T10:33:34;95422.59;;;24.16;77.35
4617;BME280;2321;42.704;23.384;2022-09-30T10:36:11;95422.84;;;24.31;72.07
4617;BME280;2321;42.704;23.384;2022-09-30T10:38:56;95423.00;;;24.45;64.87
4617;BME280;2321;42.704;23.384;2022-09-30T10:41:27;95423.44;;;24.63;66.79
4617;BME280;2321;42.704;23.384;2022-09-30T10:43:57;95425.28;;;24.73;73.05
4617;BME280;2321;42.704;23.384;2022-09-30T10:46:28;95424.44;;;24.77;70.82
4617;BME280;2321;42.704;23.384;2022-09-30T10:48:57;95431.44;;;24.89;73.44
4617;BME280;2321;42.704;23.384;2022-09-30T10:51:30;95423.72;;;25.01;75.85
4617;BME280;2321;42.704;23.384;2022-09-30T10:54:01;95423.06;;;25.15;70.24
4617;BME280;2321;42.704;23.384;2022-09-30T10:56:36;95430.09;;;25.27;64.02
4617;BME280;2321;42.704;23.384;2022-09-30T10:59:09;95424.00;;;25.35;52.15
4617;BME280;2321;42.704;23.384;2022-09-30T11:01:47;95422.84;;;25.41;51.98
4617;BME280;2321;42.704;23.384;2022-09-30T11:04:22;95427.72;;;25.44;50.24
4617;BME280;2321;42.704;23.384;2022-09-30T11:06:55;95426.25;;;25.57;50.31
4617;BME280;2321;42.704;23.384;2022-09-30T11:09:32;95436.22;;;25.67;48.45
4617;BME280;2321;42.704;23.384;2022-09-30T11:12:08;95429.09;;;25.72;49.13
4617;BME280;2321;42.704;23.384;2022-09-30T11:14:41;95434.22;;;25.78;51.58
4617;BME280;2321;42.704;23.384;2022-09-30T11:17:24;95426.16;;;25.93;50.12
4617;BME280;2321;42.704;23.384;2022-09-30T11:20:02;95430.09;;;26.06;48.95
4617;BME280;2321;42.704;23.384;2022-09-30T11:22:41;95427.75;;;26.18;45.59
4617;BME280;2321;42.704;23.384;2022-09-30T11:25:13;95435.56;;;26.25;45.12
4617;BME280;2321;42.704;23.384;2022-09-30T11:27:50;95433.03;;;26.34;47.18
4617;BME280;2321;42.704;23.384;2022-09-30T11:30:26;95428.00;;;26.41;46.58
4617;BME280;2321;42.704;23.384;2022-09-30T11:33:10;95426.03;;;26.47;45.68
4617;BME280;2321;42.704;23.384;2022-09-30T11:35:48;95419.94;;;26.56;44.30
4617;BME280;2321;42.704;23.384;2022-09-30T11:38:35;95432.59;;;26.65;46.66
4617;BME280;2321;42.704;23.384;2022-09-30T11:41:10;95426.47;;;26.74;42.45
4617;BME280;2321;42.704;23.384;2022-09-30T11:43:48;95429.13;;;26.79;44.22
4617;BME280;2321;42.704;23.384;2022-09-30T11:46:32;95429.25;;;26.88;44.36
4617;BME280;2321;42.704;23.384;2022-09-30T11:49:29;95428.28;;;26.98;43.57
4617;BME280;2321;42.704;23.384;2022-09-30T11:52:07;95427.81;;;27.10;44.59
4617;BME280;2321;42.704;23.384;2022-09-30T11:54:51;95428.56;;;27.16;45.22
4617;BME280;2321;42.704;23.384;2022-09-30T11:57:27;95421.69;;;27.18;44.27
4617;BME280;2321;42.704;23.384;2022-09-30T12:00:01;95418.22;;;27.13;43.60
4617;BME280;2321;42.704;23.384;2022-09-30T12:02:34;95427.47;;;26.97;42.18
4617;BME280;2321;42.704;23.384;2022-09-30T12:05:08;95427.72;;;26.82;42.74
4617;BME280;2321;42.704;23.384;2022-09-30T12:07:40;95423.00;;;26.68;43.99
4617;BME280;2321;42.704;23.384;2022-09-30T12:10:20;95423.00;;;26.68;45.40
4617;BME280;2321;42.704;23.384;2022-09-30T12:12:54;95429.00;;;26.70;44.42
4617;BME280;2321;42.704;23.384;2022-09-30T12:15:23;95429.44;;;26.58;43.49
4617;BME280;2321;42.704;23.384;2022-09-30T12:17:55;95434.75;;;26.49;41.15
4617;BME280;2321;42.704;23.384;2022-09-30T12:20:31;95432.63;;;26.41;41.60
4617;BME280;2321;42.704;23.384;2022-09-30T12:23:07;95431.47;;;26.47;43.70
4617;BME280;2321;42.704;23.384;2022-09-30T12:25:39;95427.28;;;26.55;42.97
4617;BME280;2321;42.704;23.384;2022-09-30T12:28:16;95432.91;;;26.64;42.26
4617;BME280;2321;42.704;23.384;2022-09-30T12:31:18;95431.25;;;26.82;43.39
4617;BME280;2321;42.704;23.384;2022-09-30T12:33:59;95436.28;;;26.94;43.69
4617;BME280;2321;42.704;23.384;2022-09-30T12:36:48;95442.69;;;27.04;42.14
4617;BME280;2321;42.704;23.384;2022-09-30T12:39:37;95439.03;;;27.08;42.75
4617;BME280;2321;42.704;23.384;2022-09-30T12:42:27;95445.78;;;27.16;42.20
4617;BME280;2321;42.704;23.384;2022-09-30T12:45:11;95448.34;;;27.27;43.18
4617;BME280;2321;42.704;23.384;2022-09-30T12:47:46;95458.59;;;27.35;42.57
4617;BME280;2321;42.704;23.384;2022-09-30T12:50:17;95448.28;;;27.46;40.22
4617;BME280;2321;42.704;23.384;2022-09-30T12:52:47;95441.19;;;27.45;40.81
4617;BME280;2321;42.704;23.384;2022-09-30T12:55:23;95455.88;;;27.49;39.92
4617;BME280;2321;42.704;23.384;2022-09-30T12:57:53;95448.88;;;27.43;39.85
4617;BME280;2321;42.704;23.384;2022-09-30T13:00:23;95455.16;;;27.44;41.29
4617;BME280;2321;42.704;23.384;2022-09-30T13:02:54;95442.22;;;27.49;41.04
4617;BME280;2321;42.704;23.384;2022-09-30T13:05:46;95443.63;;;27.47;39.67
4617;BME280;2321;42.704;23.384;2022-09-30T13:09:03;95443.31;;;27.34;40.70
4617;BME280;2321;42.704;23.384;2022-09-30T13:11:39;95443.00;;;27.36;41.38
4617;BME280;2321;42.704;23.384;2022-09-30T13:14:31;95438.94;;;27.33;41.51
4617;BME280;2321;42.704;23.384;2022-09-30T13:17:24;95439.47;;;27.35;41.03
4617;BME280;2321;42.704;23.384;2022-09-30T13:19:53;95437.13;;;27.28;41.26
4617;BME280;2321;42.704;23.384;2022-09-30T13:22:55;95446.75;;;27.40;40.75
4617;BME280;2321;42.704;23.384;2022-09-30T13:25:23;95436.50;;;27.32;39.84
4617;BME280;2321;42.704;23.384;2022-09-30T13:27:52;95430.41;;;27.20;40.20
4617;BME280;2321;42.704;23.384;2022-09-30T13:30:37;95440.13;;;27.27;40.11
4617;BME280;2321;42.704;23.384;2022-09-30T13:33:27;95454.75;;;27.36;40.71
4617;BME280;2321;42.704;23.384;2022-09-30T13:36:05;95445.22;;;27.34;40.68
4617;BME280;2321;42.704;23.384;2022-09-30T13:38:38;95444.03;;;27.40;40.18